Time;durP1;ratioP1;P1;durP2;ratioP2;P2;SDS_P1;SDS_P2;PMS_P1;PMS_P2;Temp;Humidity;BMP_temperature;BMP_pressure;BME280_temperature;BME280_humidity;BME280_pressure;Samples;Min_cycle;Max_cycle;Signal;HPM_P1;HPM_P2
2022/07/13 00:00:35;;;;;;;3.80;3.50;;;;;;;;;;5093505;28;20447;-65
2022/07/13 00:03:03;;;;;;;3.70;3.40;;;;;;;;;;5093107;28;20444;-65
2022/07/13 00:05:31;;;;;;;3.73;3.43;;;;;;;;;;5095820;28;20440;-65
2022/07/13 00:07:58;;;;;;;3.40;3.10;;;;;;;;;;5097360;28;20534;-65
2022/07/13 00:10:26;;;;;;;3.80;3.20;;;;;;;;;;5097150;28;20451;-65
2022/07/13 00:12:53;;;;;;;4.70;3.40;;;;;;;;;;5097317;28;20562;-65
2022/07/13 00:15:21;;;;;;;3.40;3.07;;;;;;;;;;5098123;28;20877;-65
2022/07/13 00:17:48;;;;;;;3.90;3.33;;;;;;;;;;5096907;28;20932;-65
2022/07/13 00:20:15;;;;;;;3.70;3.40;;;;;;;;;;5097175;28;20538;-65
2022/07/13 00:22:44;;;;;;;3.40;3.10;;;;;;;;;;5097089;28;20513;-65
2022/07/13 00:25:11;;;;;;;4.27;3.30;;;;;;;;;;5096844;28;20873;-65
2022/07/13 00:27:38;;;;;;;6.90;2.93;;;;;;;;;;5096712;28;20443;-65
2022/07/13 00:30:06;;;;;;;3.73;3.43;;;;;;;;;;5096712;28;20442;-65
2022/07/13 00:32:33;;;;;;;4.60;4.00;;;;;;;;;;5096510;28;20458;-65
2022/07/13 00:35:00;;;;;;;3.70;3.40;;;;;;;;;;5096962;28;20795;-65
2022/07/13 00:37:28;;;;;;;3.67;3.37;;;;;;;;;;5097357;28;20442;-65
2022/07/13 00:39:56;;;;;;;4.70;4.30;;;;;;;;;;5097080;28;20446;-65
2022/07/13 00:42:23;;;;;;;7.00;4.37;;;;;;;;;;5096715;28;20546;-65
2022/07/13 00:44:50;;;;;;;4.30;3.90;;;;;;;;;;5096753;28;20538;-65
2022/07/13 00:47:19;;;;;;;7.67;4.00;;;;;;;;;;5096616;28;20847;-65
2022/07/13 00:49:46;;;;;;;5.53;4.17;;;;;;;;;;5097099;28;20446;-65
2022/07/13 00:52:13;;;;;;;4.00;3.70;;;;;;;;;;5096787;28;20446;-65
2022/07/13 00:54:43;;;;;;;4.47;3.67;;;;;;;;;;5096170;28;20527;-65
2022/07/13 00:57:13;;;;;;;7.20;3.63;;;;;;;;;;5096091;28;20443;-65
2022/07/13 00:59:41;;;;;;;4.93;3.83;;;;;;;;;;5096189;28;20446;-65
2022/07/13 01:02:08;;;;;;;4.60;3.70;;;;;;;;;;5096422;28;20498;-65
2022/07/13 01:04:35;;;;;;;5.13;4.10;;;;;;;;;;5096083;28;20531;-65
2022/07/13 01:07:02;;;;;;;4.93;3.80;;;;;;;;;;5096579;28;20533;-65
2022/07/13 01:09:30;;;;;;;4.77;4.37;;;;;;;;;;5096643;28;20522;-65
2022/07/13 01:11:57;;;;;;;4.90;4.40;;;;;;;;;;5096500;28;20442;-65
2022/07/13 01:14:25;;;;;;;5.03;4.67;;;;;;;;;;5096063;28;20995;-65
2022/07/13 01:16:53;;;;;;;4.90;4.50;;;;;;;;;;5094779;28;20925;-65
2022/07/13 01:19:20;;;;;;;5.53;5.03;;;;;;;;;;5096115;28;20466;-65
2022/07/13 01:21:48;;;;;;;5.43;4.87;;;;;;;;;;5096093;28;20436;-64
2022/07/13 01:24:17;;;;;;;7.57;5.00;;;;;;;;;;5095827;28;20455;-65
2022/07/13 01:26:44;;;;;;;8.00;5.03;;;;;;;;;;5095898;28;20442;-64
2022/07/13 01:29:11;;;;;;;5.80;5.40;;;;;;;;;;5095870;28;20522;-65
2022/07/13 01:31:39;;;;;;;8.37;5.67;;;;;;;;;;5096000;28;20856;-65
2022/07/13 01:34:07;;;;;;;9.37;5.90;;;;;;;;;;5095348;28;21055;-65
2022/07/13 01:36:35;;;;;;;7.73;6.03;;;;;;;;;;5095711;28;20440;-65
2022/07/13 01:39:02;;;;;;;7.40;6.37;;;;;;;;;;5095723;28;20532;-65
2022/07/13 01:41:30;;;;;;;6.97;6.47;;;;;;;;;;5095368;28;20455;-65
2022/07/13 01:43:58;;;;;;;7.70;6.70;;;;;;;;;;5095222;28;20486;-65
2022/07/13 01:46:25;;;;;;;7.63;6.93;;;;;;;;;;5095554;28;20435;-65
2022/07/13 01:48:53;;;;;;;7.13;6.37;;;;;;;;;;5095121;28;20440;-64
2022/07/13 01:51:20;;;;;;;7.10;6.50;;;;;;;;;;5095593;28;20534;-65
2022/07/13 01:53:47;;;;;;;6.87;6.33;;;;;;;;;;5095234;28;20470;-65
2022/07/13 01:56:14;;;;;;;6.53;5.93;;;;;;;;;;5094933;28;20982;-65
2022/07/13 01:58:43;;;;;;;6.90;6.30;;;;;;;;;;5094915;28;20530;-65
2022/07/13 02:01:10;;;;;;;6.53;5.97;;;;;;;;;;5095002;28;20538;-65
2022/07/13 02:03:37;;;;;;;7.87;6.70;;;;;;;;;;5095195;28;20444;-65
2022/07/13 02:06:05;;;;;;;6.10;5.50;;;;;;;;;;5094892;28;20482;-65
2022/07/13 02:08:33;;;;;;;6.20;5.67;;;;;;;;;;5095063;28;20440;-65
2022/07/13 02:11:00;;;;;;;7.03;6.33;;;;;;;;;;5095628;28;20451;-65
2022/07/13 02:13:27;;;;;;;6.73;6.10;;;;;;;;;;5094663;28;21140;-65
2022/07/13 02:15:56;;;;;;;6.53;5.93;;;;;;;;;;5095326;28;20432;-65
2022/07/13 02:18:23;;;;;;;7.53;6.50;;;;;;;;;;5094561;28;20531;-65
2022/07/13 02:20:50;;;;;;;7.17;6.57;;;;;;;;;;5095197;28;20453;-65
2022/07/13 02:23:18;;;;;;;7.07;6.43;;;;;;;;;;5094983;28;20442;-65
2022/07/13 02:25:45;;;;;;;6.97;6.33;;;;;;;;;;5094399;28;20451;-65
2022/07/13 02:28:12;;;;;;;7.40;6.73;;;;;;;;;;5094852;28;20804;-65
2022/07/13 02:30:39;;;;;;;7.27;6.67;;;;;;;;;;5094774;28;20821;-65
2022/07/13 02:33:08;;;;;;;7.80;7.20;;;;;;;;;;5094527;28;20447;-65
2022/07/13 02:35:35;;;;;;;9.50;7.17;;;;;;;;;;5094230;28;20490;-65
2022/07/13 02:38:02;;;;;;;8.00;7.30;;;;;;;;;;5094504;28;20518;-65
2022/07/13 02:40:29;;;;;;;8.43;7.70;;;;;;;;;;5094204;28;20969;-65
2022/07/13 02:42:57;;;;;;;8.10;7.30;;;;;;;;;;5094574;28;20442;-65
2022/07/13 02:45:24;;;;;;;7.60;6.90;;;;;;;;;;5094538;28;20540;-65
2022/07/13 02:47:51;;;;;;;6.87;6.27;;;;;;;;;;5094336;28;20447;-65
2022/07/13 02:50:20;;;;;;;7.20;6.60;;;;;;;;;;5094299;28;20547;-65
2022/07/13 02:52:47;;;;;;;7.60;6.90;;;;;;;;;;5094292;28;20446;-65
2022/07/13 02:55:14;;;;;;;8.60;6.27;;;;;;;;;;5094303;28;21114;-65
2022/07/13 02:57:41;;;;;;;6.37;5.87;;;;;;;;;;5094293;28;20442;-65
2022/07/13 03:00:09;;;;;;;6.77;6.10;;;;;;;;;;5094256;28;20440;-65
2022/07/13 03:02:36;;;;;;;6.90;6.30;;;;;;;;;;5094059;28;20474;-65
2022/07/13 03:05:04;;;;;;;6.77;6.07;;;;;;;;;;5093745;28;20446;-65
2022/07/13 03:07:33;;;;;;;7.03;6.33;;;;;;;;;;5094045;28;20541;-65
2022/07/13 03:10:00;;;;;;;6.83;5.60;;;;;;;;;;5093643;28;20538;-65
2022/07/13 03:12:28;;;;;;;7.33;6.63;;;;;;;;;;5094051;28;21212;-65
2022/07/13 03:14:55;;;;;;;9.30;5.70;;;;;;;;;;5093521;28;20573;-65
2022/07/13 03:17:22;;;;;;;5.50;5.10;;;;;;;;;;5094483;28;20478;-65
2022/07/13 03:19:49;;;;;;;11.80;5.80;;;;;;;;;;5093447;28;20593;-65
2022/07/13 03:22:16;;;;;;;5.30;4.90;;;;;;;;;;5093535;28;20443;-65
2022/07/13 03:24:45;;;;;;;5.80;5.30;;;;;;;;;;5093840;28;20454;-65
2022/07/13 03:27:12;;;;;;;6.40;5.80;;;;;;;;;;5093772;28;20439;-65
2022/07/13 03:29:39;;;;;;;5.53;5.00;;;;;;;;;;5093493;28;20526;-65
2022/07/13 03:32:07;;;;;;;5.80;5.30;;;;;;;;;;5093485;28;20837;-65
2022/07/13 03:34:34;;;;;;;6.43;4.47;;;;;;;;;;5093560;28;20481;-65
2022/07/13 03:37:01;;;;;;;4.87;4.47;;;;;;;;;;5093372;28;20453;-65
2022/07/13 03:39:28;;;;;;;6.67;5.50;;;;;;;;;;5093381;28;20525;-65
2022/07/13 03:41:57;;;;;;;6.27;4.77;;;;;;;;;;5093636;28;20480;-65
2022/07/13 03:44:24;;;;;;;5.47;5.00;;;;;;;;;;5093906;28;20526;-67
2022/07/13 03:46:51;;;;;;;6.43;4.43;;;;;;;;;;5093291;28;20541;-64
2022/07/13 03:49:19;;;;;;;6.63;5.40;;;;;;;;;;5093255;28;20951;-64
2022/07/13 03:51:46;;;;;;;4.63;4.23;;;;;;;;;;5093555;28;20482;-64
2022/07/13 03:54:13;;;;;;;5.30;4.33;;;;;;;;;;5092973;28;20564;-64
2022/07/13 03:56:41;;;;;;;5.00;4.60;;;;;;;;;;5088059;28;20532;-64
2022/07/13 03:59:09;;;;;;;10.20;5.37;;;;;;;;;;5072399;28;20436;-64
2022/07/13 04:01:37;;;;;;;8.10;4.77;;;;;;;;;;5072416;28;20952;-64
2022/07/13 04:04:05;;;;;;;5.70;4.10;;;;;;;;;;5072629;28;20482;-64
2022/07/13 04:06:32;;;;;;;8.37;5.17;;;;;;;;;;5072712;28;20481;-64
2022/07/13 04:08:59;;;;;;;5.20;4.77;;;;;;;;;;5072905;28;20444;-64
2022/07/13 04:11:27;;;;;;;5.00;4.50;;;;;;;;;;5072846;28;20444;-63
2022/07/13 04:13:54;;;;;;;5.60;5.10;;;;;;;;;;5072860;28;20812;-63
2022/07/13 04:16:22;;;;;;;6.30;4.77;;;;;;;;;;5072890;28;20487;-64
2022/07/13 04:18:49;;;;;;;7.40;4.87;;;;;;;;;;5073439;28;20449;-64
2022/07/13 04:21:17;;;;;;;5.33;4.83;;;;;;;;;;5072968;28;20444;-63
2022/07/13 04:23:44;;;;;;;5.87;4.83;;;;;;;;;;5073180;28;20440;-64
2022/07/13 04:26:11;;;;;;;5.47;4.97;;;;;;;;;;5073357;28;20891;-64
2022/07/13 04:28:38;;;;;;;6.33;5.73;;;;;;;;;;5092892;28;20470;-64
2022/07/13 04:31:05;;;;;;;6.63;5.17;;;;;;;;;;5092543;28;20436;-64
2022/07/13 04:33:34;;;;;;;4.90;4.43;;;;;;;;;;5093233;28;20479;-64
2022/07/13 04:36:01;;;;;;;6.67;5.23;;;;;;;;;;5093136;28;20479;-64
2022/07/13 04:38:28;;;;;;;8.20;4.50;;;;;;;;;;5092979;28;20432;-64
2022/07/13 04:40:56;;;;;;;6.20;4.60;;;;;;;;;;5093105;28;20533;-64
2022/07/13 04:43:23;;;;;;;6.53;4.80;;;;;;;;;;5092685;28;20534;-64
2022/07/13 04:45:50;;;;;;;6.47;4.67;;;;;;;;;;5092514;28;20451;-64
2022/07/13 04:48:17;;;;;;;4.80;4.40;;;;;;;;;;5092901;28;20542;-64
2022/07/13 04:50:46;;;;;;;5.40;4.90;;;;;;;;;;5092166;28;20451;-64
2022/07/13 04:53:13;;;;;;;4.83;4.03;;;;;;;;;;5096707;28;20773;-64
2022/07/13 04:55:40;;;;;;;5.40;4.40;;;;;;;;;;5096650;28;20512;-63
2022/07/13 04:58:08;;;;;;;6.27;4.77;;;;;;;;;;5096267;28;20444;-63
2022/07/13 05:00:35;;;;;;;5.77;4.67;;;;;;;;;;5096208;28;20435;-64
2022/07/13 05:03:03;;;;;;;4.57;4.17;;;;;;;;;;5096044;28;20446;-64
2022/07/13 05:05:32;;;;;;;4.40;4.10;;;;;;;;;;5095957;28;20963;-64
2022/07/13 05:08:00;;;;;;;5.33;4.83;;;;;;;;;;5095597;28;20517;-64
2022/07/13 05:10:28;;;;;;;4.63;4.10;;;;;;;;;;5094971;28;20853;-63
2022/07/13 05:12:55;;;;;;;4.37;3.97;;;;;;;;;;5095828;28;20535;-63
2022/07/13 05:15:22;;;;;;;5.10;4.17;;;;;;;;;;5096102;28;20529;-63
2022/07/13 05:17:50;;;;;;;5.13;4.10;;;;;;;;;;5096481;28;20467;-63
2022/07/13 05:20:17;;;;;;;5.17;3.80;;;;;;;;;;5096703;28;20435;-63
2022/07/13 05:22:44;;;;;;;6.67;4.17;;;;;;;;;;5095974;28;20448;-62
2022/07/13 05:25:13;;;;;;;9.13;4.40;;;;;;;;;;5095940;28;20464;-68
2022/07/13 05:27:40;;;;;;;6.73;4.30;;;;;;;;;;5096009;28;20535;-62
2022/07/13 05:30:08;;;;;;;4.70;4.30;;;;;;;;;;5095876;28;20520;-62
2022/07/13 05:32:35;;;;;;;4.40;4.00;;;;;;;;;;5096334;28;20518;-62
2022/07/13 05:35:02;;;;;;;5.47;3.97;;;;;;;;;;5095372;28;20484;-62
2022/07/13 05:37:34;;;;;;;4.70;4.30;;;;;;;;;;5095750;28;20436;-62
2022/07/13 05:40:02;;;;;;;4.07;3.77;;;;;;;;;;5096073;28;20464;-62
2022/07/13 05:42:30;;;;;;;4.83;4.40;;;;;;;;;;5095622;28;20615;-62
2022/07/13 05:44:57;;;;;;;4.57;4.07;;;;;;;;;;5095826;28;20519;-62
2022/07/13 05:47:25;;;;;;;5.70;4.13;;;;;;;;;;5095128;28;20528;-62
2022/07/13 05:49:52;;;;;;;5.73;3.73;;;;;;;;;;5095326;28;20941;-62
2022/07/13 05:52:19;;;;;;;4.53;4.10;;;;;;;;;;5094994;28;20957;-63
2022/07/13 05:54:46;;;;;;;8.33;3.97;;;;;;;;;;5095049;28;20570;-62
2022/07/13 05:57:13;;;;;;;6.90;4.53;;;;;;;;;;5095003;28;20526;-62
2022/07/13 05:59:42;;;;;;;4.67;4.27;;;;;;;;;;5095396;28;20484;-62
2022/07/13 06:02:10;;;;;;;4.63;3.97;;;;;;;;;;5094430;28;20450;-62
2022/07/13 06:04:38;;;;;;;5.40;4.53;;;;;;;;;;5094916;28;20507;-62
2022/07/13 06:07:05;;;;;;;9.60;6.00;;;;;;;;;;5094838;28;20501;-62
2022/07/13 06:09:32;;;;;;;4.97;4.40;;;;;;;;;;5094827;28;20455;-62
2022/07/13 06:12:00;;;;;;;6.37;4.73;;;;;;;;;;5094918;28;20957;-63
2022/07/13 06:14:27;;;;;;;6.80;4.70;;;;;;;;;;5094949;28;20573;-62
2022/07/13 06:16:56;;;;;;;5.07;4.57;;;;;;;;;;5094892;28;20481;-62
2022/07/13 06:19:23;;;;;;;4.63;3.87;;;;;;;;;;5094939;28;20525;-62
2022/07/13 06:21:50;;;;;;;6.33;4.27;;;;;;;;;;5095129;28;20542;-62
2022/07/13 06:24:17;;;;;;;5.20;4.37;;;;;;;;;;5094924;28;20449;-62
2022/07/13 06:26:45;;;;;;;6.63;3.77;;;;;;;;;;5094431;28;20538;-62
2022/07/13 06:29:12;;;;;;;3.40;3.10;;;;;;;;;;5095333;28;20432;-62
2022/07/13 06:31:39;;;;;;;4.67;3.50;;;;;;;;;;5094704;28;20541;-63
2022/07/13 06:34:08;;;;;;;4.27;3.60;;;;;;;;;;5094672;28;20470;-62
2022/07/13 06:36:38;;;;;;;7.53;3.63;;;;;;;;;;5094141;28;20564;-62
2022/07/13 06:39:06;;;;;;;3.77;3.43;;;;;;;;;;5094352;28;20426;-62
2022/07/13 06:41:33;;;;;;;3.93;3.53;;;;;;;;;;5094611;28;20444;-63
2022/07/13 06:44:00;;;;;;;3.60;3.30;;;;;;;;;;5094502;28;20881;-63
2022/07/13 06:46:28;;;;;;;8.50;3.30;;;;;;;;;;5094044;28;20446;-64
2022/07/13 06:48:55;;;;;;;4.07;3.77;;;;;;;;;;5094433;28;20528;-62
2022/07/13 06:51:24;;;;;;;3.90;3.60;;;;;;;;;;5094478;28;20453;-62
2022/07/13 06:53:51;;;;;;;5.93;3.87;;;;;;;;;;5094581;28;20465;-62
2022/07/13 06:56:18;;;;;;;8.17;3.57;;;;;;;;;;5095106;28;20819;-65
2022/07/13 06:58:45;;;;;;;6.40;4.20;;;;;;;;;;5094266;28;20461;-63
2022/07/13 07:01:13;;;;;;;4.70;3.93;;;;;;;;;;5094246;28;20477;-62
2022/07/13 07:03:40;;;;;;;3.93;3.53;;;;;;;;;;5094151;28;20477;-62
2022/07/13 07:06:07;;;;;;;4.13;3.17;;;;;;;;;;5094135;28;20445;-63
2022/07/13 07:08:36;;;;;;;4.40;3.47;;;;;;;;;;5094092;28;21012;-62
2022/07/13 07:11:03;;;;;;;5.43;3.57;;;;;;;;;;5093659;28;20453;-63
2022/07/13 07:13:30;;;;;;;5.93;3.40;;;;;;;;;;5093562;28;20476;-63
2022/07/13 07:15:59;;;;;;;4.47;3.20;;;;;;;;;;5093327;28;20474;-63
2022/07/13 07:18:27;;;;;;;4.80;3.70;;;;;;;;;;5093830;28;20540;-63
2022/07/13 07:20:54;;;;;;;6.80;4.00;;;;;;;;;;5093937;28;20442;-63
2022/07/13 07:23:21;;;;;;;4.87;3.30;;;;;;;;;;5093456;28;20536;-63
2022/07/13 07:25:49;;;;;;;3.80;3.33;;;;;;;;;;5094225;28;20448;-62
2022/07/13 07:28:17;;;;;;;4.67;3.30;;;;;;;;;;5093415;28;20539;-63
2022/07/13 07:30:44;;;;;;;7.20;3.40;;;;;;;;;;5094011;28;20500;-63
2022/07/13 07:33:11;;;;;;;12.20;4.40;;;;;;;;;;5093407;28;20530;-63
2022/07/13 07:35:39;;;;;;;7.23;3.20;;;;;;;;;;5093733;28;20903;-63
2022/07/13 07:38:06;;;;;;;4.27;3.90;;;;;;;;;;5093874;28;20442;-63
2022/07/13 07:40:33;;;;;;;3.43;3.13;;;;;;;;;;5093400;28;20529;-62
2022/07/13 07:43:02;;;;;;;4.30;3.33;;;;;;;;;;5093235;28;20454;-62
2022/07/13 07:45:29;;;;;;;5.90;3.80;;;;;;;;;;5094206;28;20532;-62
2022/07/13 07:47:56;;;;;;;4.80;3.90;;;;;;;;;;5093172;28;20949;-62
2022/07/13 07:50:23;;;;;;;4.33;3.60;;;;;;;;;;5093573;28;20442;-62
2022/07/13 07:52:51;;;;;;;6.13;3.73;;;;;;;;;;5093518;28;20867;-63
2022/07/13 07:55:19;;;;;;;3.33;3.03;;;;;;;;;;5093216;28;20529;-62
2022/07/13 07:57:47;;;;;;;3.37;3.07;;;;;;;;;;5093119;28;20977;-62
2022/07/13 08:00:16;;;;;;;4.60;3.63;;;;;;;;;;5093656;28;20445;-62
2022/07/13 08:02:43;;;;;;;3.57;3.23;;;;;;;;;;5093395;28;20441;-63
2022/07/13 08:05:11;;;;;;;4.97;3.63;;;;;;;;;;5093486;28;20436;-62
2022/07/13 08:07:42;;;;;;;5.70;2.90;;;;;;;;;;5093345;28;20545;-62
2022/07/13 08:10:09;;;;;;;4.80;4.40;;;;;;;;;;5093435;28;20590;-62
2022/07/13 08:12:37;;;;;;;4.93;3.10;;;;;;;;;;5093752;28;20529;-62
2022/07/13 08:15:04;;;;;;;3.63;3.23;;;;;;;;;;5092492;28;20508;-63
2022/07/13 08:17:33;;;;;;;4.63;3.60;;;;;;;;;;5092952;28;20444;-63
2022/07/13 08:20:00;;;;;;;3.83;3.30;;;;;;;;;;5093462;28;20910;-63
2022/07/13 08:22:27;;;;;;;10.43;3.50;;;;;;;;;;5093218;28;20440;-63
2022/07/13 08:24:55;;;;;;;4.93;3.53;;;;;;;;;;5093537;28;20482;-63
2022/07/13 08:27:22;;;;;;;4.10;3.70;;;;;;;;;;5096829;28;20451;-62
2022/07/13 08:29:49;;;;;;;4.40;3.23;;;;;;;;;;5097106;28;20803;-62
2022/07/13 08:32:16;;;;;;;3.30;3.00;;;;;;;;;;5097080;28;20452;-62
2022/07/13 08:40:15;;;;;;;6.73;3.10;;;;;;;;;;5096735;28;21012;-62
2022/07/13 08:42:42;;;;;;;4.03;3.57;;;;;;;;;;5096457;28;20445;-63
2022/07/13 08:45:09;;;;;;;4.37;3.40;;;;;;;;;;5096514;28;20447;-62
2022/07/13 08:47:38;;;;;;;4.03;2.93;;;;;;;;;;5096475;28;20536;-62
2022/07/13 08:50:07;;;;;;;8.70;3.43;;;;;;;;;;5096675;28;20451;-62
2022/07/13 08:52:35;;;;;;;5.60;3.50;;;;;;;;;;5096959;28;20444;-62
2022/07/13 08:55:05;;;;;;;4.83;3.27;;;;;;;;;;5096623;28;20536;-62
2022/07/13 08:57:34;;;;;;;4.20;3.17;;;;;;;;;;5096173;28;20559;-62
2022/07/13 09:00:02;;;;;;;6.93;3.40;;;;;;;;;;5096150;28;20445;-62
2022/07/13 09:08:43;;;;;;;3.80;3.30;;;;;;;;;;5096252;28;20926;-63
2022/07/13 09:11:11;;;;;;;5.10;3.40;;;;;;;;;;5096606;28;20433;-63
2022/07/13 09:13:39;;;;;;;4.10;3.57;;;;;;;;;;5095940;28;20969;-63
2022/07/13 09:16:13;;;;;;;3.90;3.50;;;;;;;;;;5096228;28;20482;-63
2022/07/13 09:18:41;;;;;;;6.67;3.40;;;;;;;;;;5096205;28;20805;-63
2022/07/13 09:21:09;;;;;;;3.13;2.83;;;;;;;;;;5096119;28;20410;-63
2022/07/13 09:23:36;;;;;;;7.50;3.87;;;;;;;;;;5095956;28;20453;-63
2022/07/13 09:26:05;;;;;;;4.90;3.00;;;;;;;;;;5095665;28;20550;-63
2022/07/13 09:28:42;;;;;;;4.13;3.20;;;;;;;;;;5095566;28;20492;-63
2022/07/13 09:31:09;;;;;;;5.17;3.07;;;;;;;;;;5095752;28;20434;-62
2022/07/13 09:33:37;;;;;;;3.87;3.20;;;;;;;;;;5095825;28;20468;-63
2022/07/13 09:36:11;;;;;;;4.77;3.20;;;;;;;;;;5095501;28;20563;-63
2022/07/13 09:38:39;;;;;;;4.23;3.20;;;;;;;;;;5095005;28;20437;-62
2022/07/13 09:41:21;;;;;;;6.00;3.00;;;;;;;;;;5096221;28;20789;-62
2022/07/13 09:46:49;;;;;;;14.57;3.23;;;;;;;;;;5095614;28;20774;-63
2022/07/13 09:49:17;;;;;;;2.97;2.77;;;;;;;;;;5096016;28;20444;-63
2022/07/13 09:51:45;;;;;;;4.70;3.57;;;;;;;;;;5095836;28;20457;-63
2022/07/13 09:54:13;;;;;;;7.37;3.10;;;;;;;;;;5095482;28;20463;-63
2022/07/13 09:56:44;;;;;;;5.67;3.40;;;;;;;;;;5095078;28;20481;-63
2022/07/13 09:59:12;;;;;;;3.37;3.07;;;;;;;;;;5095151;28;20503;-63
2022/07/13 10:01:39;;;;;;;2.90;2.67;;;;;;;;;;5095319;28;20419;-62
2022/07/13 10:04:08;;;;;;;2.90;2.70;;;;;;;;;;5095194;28;20446;-63
2022/07/13 10:06:35;;;;;;;5.23;3.00;;;;;;;;;;5095212;28;20456;-63
2022/07/13 10:09:03;;;;;;;3.00;2.43;;;;;;;;;;5094807;28;20531;-63
2022/07/13 10:11:30;;;;;;;4.37;2.60;;;;;;;;;;5095179;28;20438;-63
2022/07/13 10:13:59;;;;;;;4.23;2.90;;;;;;;;;;5094809;28;20955;-63
2022/07/13 10:16:28;;;;;;;5.03;2.57;;;;;;;;;;5095837;28;20489;-63
2022/07/13 10:18:56;;;;;;;2.60;2.40;;;;;;;;;;5094953;28;20803;-64
2022/07/13 10:21:28;;;;;;;4.50;3.10;;;;;;;;;;5095016;28;20892;-63
2022/07/13 10:23:55;;;;;;;2.80;2.60;;;;;;;;;;5095077;28;20781;-63
2022/07/13 10:26:24;;;;;;;3.77;2.83;;;;;;;;;;5094728;28;20484;-63
2022/07/13 10:29:06;;;;;;;3.00;2.50;;;;;;;;;;5094775;28;20488;-63
2022/07/13 10:31:36;;;;;;;2.63;2.20;;;;;;;;;;5094519;28;20432;-63
2022/07/13 10:34:03;;;;;;;4.03;2.80;;;;;;;;;;5095102;28;20773;-63
2022/07/13 10:36:49;;;;;;;3.10;2.87;;;;;;;;;;5094600;28;20452;-63
2022/07/13 10:39:17;;;;;;;4.20;2.40;;;;;;;;;;5094198;28;20532;-63
2022/07/13 10:41:56;;;;;;;4.57;2.50;;;;;;;;;;5094928;28;20443;-63
2022/07/13 10:44:41;;;;;;;2.77;2.57;;;;;;;;;;5094103;28;20404;-64
2022/07/13 10:47:11;;;;;;;2.80;2.60;;;;;;;;;;5094274;28;20908;-63
2022/07/13 10:49:44;;;;;;;4.80;2.50;;;;;;;;;;5094392;28;20861;-63
2022/07/13 10:52:30;;;;;;;2.80;2.60;;;;;;;;;;5095070;28;20409;-63
2022/07/13 10:55:13;;;;;;;3.17;2.80;;;;;;;;;;5094523;28;20466;-63
2022/07/13 10:57:42;;;;;;;4.13;2.80;;;;;;;;;;5061320;28;20847;-63
2022/07/13 11:00:19;;;;;;;2.60;2.40;;;;;;;;;;5094281;28;20412;-63
2022/07/13 11:02:49;;;;;;;2.73;2.53;;;;;;;;;;5094429;28;20407;-63
2022/07/13 11:05:17;;;;;;;3.13;2.93;;;;;;;;;;5094352;28;20471;-63
2022/07/13 11:07:45;;;;;;;3.20;2.90;;;;;;;;;;5093663;28;20445;-63
2022/07/13 11:10:17;;;;;;;3.03;2.83;;;;;;;;;;5093566;28;20901;-63
2022/07/13 11:12:55;;;;;;;3.20;2.90;;;;;;;;;;5093643;28;20508;-63
2022/07/13 11:15:23;;;;;;;5.63;3.10;;;;;;;;;;5093409;28;20986;-63
2022/07/13 11:17:53;;;;;;;4.73;3.53;;;;;;;;;;5094248;28;20462;-63
2022/07/13 11:20:22;;;;;;;3.67;2.83;;;;;;;;;;5094419;28;20841;-63
2022/07/13 11:25:47;;;;;;;4.10;3.00;;;;;;;;;;5093347;28;20429;-63
2022/07/13 11:28:29;;;;;;;3.50;3.20;;;;;;;;;;5093755;28;20456;-63
2022/07/13 11:30:57;;;;;;;3.33;3.03;;;;;;;;;;5093820;28;20427;-63
2022/07/13 11:33:26;;;;;;;3.80;3.00;;;;;;;;;;5093342;28;20544;-63
2022/07/13 11:35:53;;;;;;;4.43;2.67;;;;;;;;;;5093302;28;20478;-63
2022/07/13 11:38:21;;;;;;;3.03;2.83;;;;;;;;;;5093458;28;20999;-63
2022/07/13 11:40:48;;;;;;;3.77;3.47;;;;;;;;;;5093529;28;20503;-63
2022/07/13 11:43:15;;;;;;;3.30;3.00;;;;;;;;;;5094249;28;20425;-64
2022/07/13 11:45:43;;;;;;;4.27;3.50;;;;;;;;;;5093431;28;20442;-63
2022/07/13 11:48:15;;;;;;;3.80;3.50;;;;;;;;;;5093221;28;20428;-63
2022/07/13 11:50:44;;;;;;;4.47;3.40;;;;;;;;;;5093164;28;20485;-63
2022/07/13 11:53:20;;;;;;;4.87;3.33;;;;;;;;;;5093516;28;20477;-62
2022/07/13 11:55:48;;;;;;;3.23;3.00;;;;;;;;;;5093869;28;20490;-63
2022/07/13 11:58:27;;;;;;;8.27;4.83;;;;;;;;;;5093612;28;20464;-63
2022/07/13 12:00:54;;;;;;;3.80;3.50;;;;;;;;;;5095040;28;20496;-63
2022/07/13 12:03:32;;;;;;;9.50;4.90;;;;;;;;;;5097197;28;20459;-62
2022/07/13 12:06:01;;;;;;;3.43;3.10;;;;;;;;;;5097681;28;20452;-63
2022/07/13 12:08:29;;;;;;;4.80;3.90;;;;;;;;;;5097718;28;20448;-63
2022/07/13 12:10:57;;;;;;;4.40;4.10;;;;;;;;;;5097016;28;20438;-63
2022/07/13 12:13:24;;;;;;;5.07;4.60;;;;;;;;;;5097148;28;20560;-62
2022/07/13 12:15:52;;;;;;;5.37;4.00;;;;;;;;;;5097005;28;20400;-62
2022/07/13 12:18:19;;;;;;;6.07;4.27;;;;;;;;;;5097150;28;20512;-62
2022/07/13 12:20:47;;;;;;;6.13;4.37;;;;;;;;;;5096795;28;20534;-62
2022/07/13 12:23:17;;;;;;;5.00;4.20;;;;;;;;;;5097210;28;20511;-62
2022/07/13 12:25:47;;;;;;;6.63;4.17;;;;;;;;;;5097526;28;20843;-63
2022/07/13 12:28:14;;;;;;;3.73;3.43;;;;;;;;;;5097016;28;20534;-63
2022/07/13 12:30:56;;;;;;;4.97;4.03;;;;;;;;;;5097171;28;20842;-63
2022/07/13 12:33:24;;;;;;;4.40;4.00;;;;;;;;;;5096721;28;20469;-62
2022/07/13 12:36:02;;;;;;;4.50;4.10;;;;;;;;;;5096388;28;20414;-64
2022/07/13 12:38:31;;;;;;;5.03;4.07;;;;;;;;;;5097559;28;20470;-64
2022/07/13 12:41:01;;;;;;;3.70;3.40;;;;;;;;;;5097092;28;20836;-64
2022/07/13 12:43:28;;;;;;;7.27;4.40;;;;;;;;;;5096718;28;20445;-64
2022/07/13 12:45:56;;;;;;;4.40;3.83;;;;;;;;;;5096254;28;21008;-64
2022/07/13 12:48:24;;;;;;;4.90;3.60;;;;;;;;;;5096961;28;20545;-64
2022/07/13 12:51:01;;;;;;;7.60;3.70;;;;;;;;;;5096648;28;20859;-64
2022/07/13 12:53:44;;;;;;;4.83;4.40;;;;;;;;;;5096187;28;20938;-64
2022/07/13 12:56:13;;;;;;;5.47;4.43;;;;;;;;;;5089553;28;20538;-63
2022/07/13 12:58:41;;;;;;;5.20;3.53;;;;;;;;;;5074864;28;20456;-64
2022/07/13 13:01:09;;;;;;;5.33;3.83;;;;;;;;;;5075439;28;20457;-64
2022/07/13 13:03:37;;;;;;;4.17;3.80;;;;;;;;;;5075472;28;20527;-63
2022/07/13 13:06:04;;;;;;;4.87;3.80;;;;;;;;;;5075744;28;20486;-63
2022/07/13 13:08:32;;;;;;;3.63;3.33;;;;;;;;;;5075378;28;20445;-63
2022/07/13 13:10:59;;;;;;;4.40;4.00;;;;;;;;;;5075753;28;20506;-64
2022/07/13 13:13:28;;;;;;;6.67;3.90;;;;;;;;;;5074212;28;20479;-64
2022/07/13 13:15:55;;;;;;;5.13;3.90;;;;;;;;;;5075830;28;20456;-64
2022/07/13 13:18:22;;;;;;;3.67;3.37;;;;;;;;;;5075575;28;20879;-64
2022/07/13 13:20:49;;;;;;;8.63;4.60;;;;;;;;;;5089247;28;20529;-64
2022/07/13 13:23:17;;;;;;;3.53;3.23;;;;;;;;;;5095933;28;20453;-63
2022/07/13 13:25:44;;;;;;;4.60;3.37;;;;;;;;;;5095172;28;20896;-64
2022/07/13 13:28:11;;;;;;;3.80;3.50;;;;;;;;;;5095200;28;20480;-64
2022/07/13 13:30:45;;;;;;;3.80;3.60;;;;;;;;;;5095368;28;20966;-64
2022/07/13 13:33:13;;;;;;;4.00;3.13;;;;;;;;;;5095374;28;20426;-66
2022/07/13 13:35:40;;;;;;;4.33;3.53;;;;;;;;;;5095336;28;20522;-66
2022/07/13 13:38:08;;;;;;;3.60;3.30;;;;;;;;;;5095439;28;20564;-66
2022/07/13 13:40:35;;;;;;;6.80;3.53;;;;;;;;;;5095896;28;20503;-67
2022/07/13 13:43:02;;;;;;;6.10;3.10;;;;;;;;;;5095096;28;20446;-66
2022/07/13 13:45:29;;;;;;;3.50;3.20;;;;;;;;;;5095491;28;20477;-67
2022/07/13 13:47:58;;;;;;;3.23;3.03;;;;;;;;;;5095341;28;20525;-67
2022/07/13 13:50:25;;;;;;;4.07;3.60;;;;;;;;;;5095125;28;20446;-66
2022/07/13 13:52:53;;;;;;;3.70;3.40;;;;;;;;;;5094993;28;20473;-66
2022/07/13 13:55:20;;;;;;;4.00;3.70;;;;;;;;;;5094866;28;20502;-66
2022/07/13 13:57:48;;;;;;;4.40;4.00;;;;;;;;;;5094787;28;20911;-66
2022/07/13 14:00:15;;;;;;;3.90;3.60;;;;;;;;;;5095079;28;20450;-66
2022/07/13 14:02:43;;;;;;;4.33;3.53;;;;;;;;;;5095180;28;20442;-67
2022/07/13 14:05:11;;;;;;;6.00;4.00;;;;;;;;;;5094615;28;20958;-67
2022/07/13 14:07:39;;;;;;;4.77;3.80;;;;;;;;;;5094494;28;20561;-67
2022/07/13 14:10:07;;;;;;;7.17;3.90;;;;;;;;;;5094330;28;20896;-67
2022/07/13 14:12:34;;;;;;;4.03;3.73;;;;;;;;;;5095114;28;20869;-67
2022/07/13 14:15:01;;;;;;;4.33;3.90;;;;;;;;;;5095031;28;20490;-66
2022/07/13 14:17:29;;;;;;;7.70;3.97;;;;;;;;;;5094860;28;20473;-67
2022/07/13 14:19:56;;;;;;;4.37;3.97;;;;;;;;;;5094319;28;20427;-66
2022/07/13 14:22:24;;;;;;;4.60;4.20;;;;;;;;;;5094874;28;20502;-67
2022/07/13 14:24:56;;;;;;;4.00;3.70;;;;;;;;;;5094467;28;20428;-66
2022/07/13 14:27:23;;;;;;;4.10;3.57;;;;;;;;;;5094495;28;20529;-67
2022/07/13 14:29:51;;;;;;;4.30;3.90;;;;;;;;;;5093856;28;20445;-67
2022/07/13 14:32:19;;;;;;;4.27;3.87;;;;;;;;;;5094063;28;20936;-67
2022/07/13 14:34:46;;;;;;;4.43;3.87;;;;;;;;;;5094082;28;20422;-66
2022/07/13 14:37:15;;;;;;;3.73;3.40;;;;;;;;;;5094510;28;20449;-66
2022/07/13 14:39:44;;;;;;;4.93;3.87;;;;;;;;;;5094141;28;20419;-66
2022/07/13 14:42:11;;;;;;;5.80;4.17;;;;;;;;;;5094608;28;20544;-67
2022/07/13 14:44:39;;;;;;;4.77;3.77;;;;;;;;;;5093778;28;20469;-66
2022/07/13 14:47:07;;;;;;;4.07;3.67;;;;;;;;;;5094113;28;20506;-67
2022/07/13 14:49:34;;;;;;;4.67;3.70;;;;;;;;;;5093438;28;21006;-67
2022/07/13 14:52:02;;;;;;;3.60;3.30;;;;;;;;;;5094113;28;20527;-67
2022/07/13 14:54:29;;;;;;;6.00;3.23;;;;;;;;;;5094039;28;20453;-67
2022/07/13 14:56:58;;;;;;;4.00;3.60;;;;;;;;;;5094073;28;20444;-66
2022/07/13 14:59:25;;;;;;;4.30;3.70;;;;;;;;;;5093947;28;20573;-67
2022/07/13 15:01:53;;;;;;;3.60;3.03;;;;;;;;;;5093528;28;20525;-67
2022/07/13 15:04:22;;;;;;;4.53;2.53;;;;;;;;;;5093841;28;20516;-67
2022/07/13 15:06:50;;;;;;;3.63;3.10;;;;;;;;;;5093420;28;20951;-66